Time;durP1;ratioP1;P1;durP2;ratioP2;P2;SDS_P1;SDS_P2;PMS_P1;PMS_P2;Temp;Humidity;BMP_temperature;BMP_pressure;BME280_temperature;BME280_humidity;BME280_pressure;Samples;Min_cycle;Max_cycle;Signal;HPM_P1;HPM_P2
2023/05/26 07:01:19;;;;;;;4.97;1.50;;;15.30;99.90;16.50;102897.00;;;;6282590;22;20185;-72
2023/05/26 07:03:48;;;;;;;11.27;2.57;;;14.90;99.90;17.40;102836.00;;;;6282025;22;20193;-72
2023/05/26 07:06:16;;;;;;;2.87;2.57;;;15.30;99.90;15.60;102885.00;;;;6257522;22;20157;-73
2023/05/26 07:08:42;;;;;;;2.30;1.23;;;14.30;99.90;15.90;102864.00;;;;6309347;22;20149;-73
2023/05/26 07:11:09;;;;;;;3.50;0.70;;;14.10;99.90;16.20;102871.00;;;;6282067;22;20149;-73
2023/05/26 07:13:38;;;;;;;2.20;1.60;;;14.50;99.90;18.50;102864.00;;;;6256823;22;20158;-74
2023/05/26 07:16:04;;;;;;;2.63;0.87;;;15.30;99.90;19.20;102890.00;;;;6282765;22;20142;-73
2023/05/26 07:18:31;;;;;;;13.32;1.55;;;16.10;99.90;20.80;102844.00;;;;6281773;22;20171;-73
2023/05/26 07:20:58;;;;;;;1.48;0.80;;;17.10;99.90;19.60;102895.00;;;;6282316;22;20770;-73
2023/05/26 07:23:25;;;;;;;1.80;0.95;;;17.20;99.90;19.80;102875.00;;;;6255963;22;20464;-73
2023/05/26 07:25:51;;;;;;;0.90;0.32;;;17.20;99.90;19.20;102899.00;;;;6282052;22;20236;-73
2023/05/26 07:28:17;;;;;;;0.13;0.13;;;17.00;99.90;20.00;102866.00;;;;6309074;22;20580;-73
2023/05/26 07:30:43;;;;;;;1.75;0.88;;;17.00;99.90;21.20;102860.00;;;;6308835;22;20213;-73
2023/05/26 07:33:09;;;;;;;1.80;1.70;;;17.60;99.90;18.50;102910.00;;;;6256457;22;20164;-72
2023/05/26 07:35:38;;;;;;;3.35;1.13;;;17.10;99.90;18.60;102922.00;;;;6281865;22;20148;-73
2023/05/26 07:38:04;;;;;;;1.20;1.10;;;17.00;99.90;19.60;102896.00;;;;6308707;22;20569;-73
2023/05/26 07:40:34;;;;;;;2.92;0.95;;;17.10;99.90;20.40;102887.00;;;;6256156;22;20247;-73
2023/05/26 07:43:01;;;;;;;2.47;1.13;;;17.50;99.90;18.50;102931.00;;;;6309218;22;20175;-73
2023/05/26 07:45:30;;;;;;;6.13;1.02;;;16.70;99.90;17.70;102940.00;;;;6281934;22;20198;-73
2023/05/26 07:47:56;;;;;;;1.55;1.00;;;16.00;99.90;19.50;102909.00;;;;6309171;22;20144;-73
2023/05/26 07:50:22;;;;;;;2.45;1.40;;;16.60;99.90;18.90;102898.00;;;;6281963;22;20512;-73
2023/05/26 07:52:48;;;;;;;11.32;1.10;;;16.90;99.90;20.90;102904.00;;;;6308923;22;20478;-73
2023/05/26 07:55:13;;;;;;;0.30;0.30;;;17.70;99.90;21.00;102822.00;;;;6308633;22;20561;-73
2023/05/26 07:57:42;;;;;;;1.15;0.45;;;18.00;99.90;21.70;102852.00;;;;6309073;22;20141;-73
2023/05/26 08:00:09;;;;;;;9.00;2.72;;;18.50;99.90;18.50;102925.00;;;;6276342;22;20161;-73
2023/05/26 08:02:35;;;;;;;0.82;0.82;;;17.60;99.90;20.60;102843.00;;;;6250910;22;20173;-73
2023/05/26 08:05:14;;;;;;;0.90;0.50;;;17.60;99.90;20.90;102873.00;;;;6275529;22;20387;-73
2023/05/26 08:07:40;;;;;;;1.70;1.60;;;18.10;99.90;20.20;102885.00;;;;6276513;22;20148;-73
2023/05/26 08:10:06;;;;;;;1.83;0.90;;;18.20;99.90;21.60;102824.00;;;;6276423;22;20149;-73
2023/05/26 08:12:32;;;;;;;7.47;2.70;;;18.90;99.90;16.80;102906.00;;;;6276582;22;20145;-73
2023/05/26 08:14:58;;;;;;;0.40;0.40;;;16.70;99.90;20.70;102888.00;;;;6278151;22;20153;-73
2023/05/26 08:17:24;;;;;;;7.78;1.00;;;17.50;99.90;21.60;102859.00;;;;6250860;22;20149;-73
2023/05/26 08:19:53;;;;;;;1.88;0.73;;;18.40;99.90;21.20;102868.00;;;;6250490;22;20172;-73
2023/05/26 08:22:18;;;;;;;1.65;1.55;;;18.90;99.90;21.80;102855.00;;;;6276630;22;20215;-73
2023/05/26 08:24:44;;;;;;;2.47;1.08;;;18.90;99.90;20.90;102867.00;;;;6276424;22;20145;-73
2023/05/26 08:27:10;;;;;;;2.08;0.60;;;18.30;99.90;21.50;102852.00;;;;6250835;22;20233;-73
2023/05/26 08:29:36;;;;;;;2.10;1.27;;;18.60;99.90;19.50;102859.00;;;;6276099;22;20151;-73
2023/05/26 08:32:02;;;;;;;4.60;1.70;;;18.00;99.90;18.80;102885.00;;;;6250365;22;20235;-73
2023/05/26 08:34:31;;;;;;;5.97;1.65;;;17.40;99.90;19.40;102929.00;;;;6250438;22;20562;-73
2023/05/26 08:36:57;;;;;;;1.67;1.35;;;17.10;99.90;19.20;102878.00;;;;6276357;22;20149;-73
2023/05/26 08:39:23;;;;;;;0.10;0.10;;;16.80;99.90;19.60;102888.00;;;;6276169;22;20493;-73
2023/05/26 08:41:55;;;;;;;7.75;1.45;;;16.60;99.90;19.70;102871.00;;;;6277158;22;20188;-73
2023/05/26 08:44:22;;;;;;;0.80;0.80;;;17.40;99.90;20.40;102907.00;;;;6276229;22;20157;-73
2023/05/26 08:46:55;;;;;;;3.72;0.85;;;18.00;99.90;20.00;102900.00;;;;6276099;22;20145;-73
2023/05/26 08:49:24;;;;;;;1.17;1.17;;;17.80;99.90;19.10;102934.00;;;;6251169;22;20188;-73
2023/05/26 08:52:08;;;;;;;0.17;0.17;;;17.10;99.90;20.90;102879.00;;;;6250623;22;20153;-73
2023/05/26 08:54:34;;;;;;;3.45;1.48;;;17.90;99.90;19.90;102905.00;;;;6250595;22;20165;-73
2023/05/26 08:57:03;;;;;;;4.40;1.35;;;18.00;99.90;20.00;102862.00;;;;6275709;22;20224;-73
2023/05/26 08:59:31;;;;;;;0.55;0.38;;;17.90;99.90;20.30;102890.00;;;;6250118;22;20612;-73
2023/05/26 09:01:57;;;;;;;5.38;1.17;;;17.90;99.90;19.80;102921.00;;;;6250075;22;20625;-73
2023/05/26 09:04:25;;;;;;;15.02;2.92;;;17.50;99.90;19.70;102926.00;;;;6250343;22;20525;-73
2023/05/26 09:06:51;;;;;;;3.25;1.10;;;17.60;99.90;21.20;102897.00;;;;6250179;22;20565;-73
2023/05/26 09:09:20;;;;;;;0.30;0.30;;;18.20;99.90;20.80;102876.00;;;;6250552;22;20165;-73
2023/05/26 09:11:46;;;;;;;4.03;1.10;;;18.30;99.90;21.70;102862.00;;;;6249927;22;20172;-73
2023/05/26 09:14:16;;;;;;;8.40;2.15;;;19.00;99.90;19.20;102908.00;;;;6276010;22;20183;-73
2023/05/26 09:16:43;;;;;;;5.95;2.05;;;18.10;99.90;18.90;102927.00;;;;6249536;22;20161;-73
2023/05/26 09:19:17;;;;;;;5.97;1.73;;;17.30;99.90;19.80;102855.00;;;;6275769;22;20145;-73
2023/05/26 09:21:51;;;;;;;1.98;1.05;;;17.70;99.90;19.90;102855.00;;;;6275767;22;20229;-74
2023/05/26 09:24:20;;;;;;;0.30;0.30;;;17.70;99.90;20.50;102902.00;;;;6250408;22;20156;-74
2023/05/26 09:26:47;;;;;;;2.55;2.40;;;17.70;99.90;21.40;102861.00;;;;6275854;22;20145;-74
2023/05/26 09:29:15;;;;;;;1.20;0.85;;;18.40;99.90;20.60;102884.00;;;;6250249;22;20153;-74
2023/05/26 09:31:46;;;;;;;2.65;2.33;;;18.70;99.90;21.00;102880.00;;;;6249821;22;20163;-74
2023/05/26 09:34:17;;;;;;;5.03;1.15;;;18.40;99.90;20.10;102895.00;;;;6249907;22;20565;-74
2023/05/26 09:36:43;;;;;;;4.47;2.17;;;18.40;99.90;19.60;102864.00;;;;6275626;22;20164;-74
2023/05/26 09:39:15;;;;;;;0.47;0.47;;;18.10;99.90;20.50;102911.00;;;;6275774;22;20191;-73
2023/05/26 09:41:44;;;;;;;8.63;0.80;;;17.90;99.90;20.80;102880.00;;;;6249350;22;20168;-73
2023/05/26 09:44:14;;;;;;;2.15;1.10;;;18.30;99.90;19.60;102918.00;;;;6250104;22;20218;-73
2023/05/26 09:46:42;;;;;;;7.75;2.22;;;17.90;99.90;19.50;102913.00;;;;6276429;22;20627;-73
2023/05/26 09:49:18;;;;;;;8.68;1.58;;;17.80;99.90;21.00;102878.00;;;;6250033;22;20164;-73
2023/05/26 09:51:47;;;;;;;0.80;0.60;;;18.50;99.90;20.10;102912.00;;;;6249982;22;20161;-73
2023/05/26 09:54:14;;;;;;;0.20;0.20;;;18.10;99.90;21.40;102850.00;;;;6250145;22;20184;-72
2023/05/26 09:56:55;;;;;;;4.38;3.20;;;18.70;99.90;20.30;102882.00;;;;6249828;22;20588;-73
2023/05/26 09:59:32;;;;;;;1.08;0.98;;;18.40;99.90;20.50;102839.00;;;;6275158;22;20171;-73
2023/05/26 10:02:00;;;;;;;5.18;0.63;;;18.60;99.90;20.80;102864.00;;;;6249275;22;20207;-73
2023/05/26 10:04:25;;;;;;;1.65;0.80;;;18.60;99.90;22.40;102790.00;;;;6275554;22;20207;-72
2023/05/26 10:06:53;;;;;;;1.70;0.95;;;19.20;99.90;22.20;102845.00;;;;6275465;22;20504;-73
2023/05/26 10:09:26;;;;;;;2.13;0.90;;;19.60;99.90;22.20;102860.00;;;;6249470;22;20248;-73
2023/05/26 10:11:55;;;;;;;1.73;0.70;;;19.90;99.90;22.00;102861.00;;;;6249597;22;20204;-73
2023/05/26 10:14:21;;;;;;;3.08;1.08;;;19.90;99.90;21.90;102866.00;;;;6275143;22;20592;-73
2023/05/26 10:16:48;;;;;;;4.75;0.85;;;19.60;99.90;22.30;102860.00;;;;6249439;22;20168;-74
2023/05/26 10:19:14;;;;;;;0.45;0.45;;;19.70;99.90;23.60;102845.00;;;;6275450;22;20141;-73
2023/05/26 10:33:20;;;;;;;7.32;0.43;;;18.60;99.90;22.40;102901.00;;;;5070097;28;21841;-72
2023/05/26 10:35:57;;;;;;;1.42;1.02;;;19.40;99.90;22.90;102896.00;;;;5050241;28;20190;-73
2023/05/26 10:38:30;;;;;;;0.55;0.40;;;20.30;99.90;23.10;102852.00;;;;5032651;28;20184;-72
2023/05/26 10:40:57;;;;;;;1.48;1.38;;;20.30;99.90;21.90;102901.00;;;;5049686;28;20732;-72
2023/05/26 10:43:27;;;;;;;2.80;1.13;;;20.10;99.90;21.80;102901.00;;;;5050198;28;20189;-73
2023/05/26 10:45:58;;;;;;;7.38;2.95;;;19.90;99.90;21.30;102909.00;;;;5032296;28;20182;-72
2023/05/26 10:48:56;;;;;;;1.42;1.20;;;19.60;99.90;21.00;102918.00;;;;5048684;28;20186;-72
2023/05/26 10:51:33;;;;;;;1.27;1.17;;;19.10;99.90;23.20;102876.00;;;;5032541;28;20202;-72
2023/05/26 10:54:15;;;;;;;0.10;0.10;;;19.50;99.90;25.00;102919.00;;;;5052597;28;20189;-73
2023/05/26 10:56:43;;;;;;;2.55;1.75;;;21.10;99.90;23.30;102928.00;;;;5036269;28;20186;-73
2023/05/26 10:59:22;;;;;;;9.75;2.17;;;20.90;99.90;22.60;102939.00;;;;5048594;28;20190;-73
2023/05/26 11:02:00;;;;;;;2.45;1.40;;;21.00;99.90;21.00;102924.00;;;;5065146;28;20221;-72
2023/05/26 11:04:47;;;;;;;2.35;1.70;;;19.90;99.90;21.70;102919.00;;;;5048522;28;20213;-72
2023/05/26 11:07:28;;;;;;;3.75;1.85;;;19.50;99.90;23.60;102920.00;;;;5048619;28;20235;-73
2023/05/26 11:10:05;;;;;;;3.63;2.53;;;20.70;99.90;22.10;102932.00;;;;5040112;28;20190;-72
2023/05/26 11:12:57;;;;;;;0.30;0.30;;;20.30;99.90;22.60;102926.00;;;;5048401;28;20293;-72
2023/05/26 11:15:33;;;;;;;9.52;1.85;;;20.20;99.90;22.20;102914.00;;;;5060682;28;20193;-72
2023/05/26 11:18:06;;;;;;;2.22;2.08;;;20.20;99.90;21.80;102905.00;;;;5056787;28;20260;-72
2023/05/26 11:20:32;;;;;;;1.23;1.05;;;20.20;99.90;21.30;102910.00;;;;5032188;28;20190;-72
2023/05/26 11:22:58;;;;;;;3.05;2.00;;;19.70;99.90;21.60;102910.00;;;;5065109;28;20201;-73
2023/05/26 11:25:27;;;;;;;4.90;1.17;;;19.50;99.90;23.50;102907.00;;;;5047536;28;20644;-73
2023/05/26 11:27:56;;;;;;;0.55;0.55;;;20.80;99.90;22.40;102868.00;;;;5048279;28;20183;-73
2023/05/26 11:30:32;;;;;;;7.82;2.08;;;20.60;99.90;23.10;102897.00;;;;5036000;28;20186;-72
2023/05/26 11:32:58;;;;;;;1.42;1.00;;;21.30;99.90;23.70;102900.00;;;;5048072;28;20272;-73
2023/05/26 11:35:29;;;;;;;0.90;0.90;;;21.60;99.90;23.20;102877.00;;;;5047863;28;20693;-73
2023/05/26 11:37:55;;;;;;;2.30;0.80;;;21.20;99.90;23.00;102898.00;;;;5047894;28;20257;-72
2023/05/26 11:40:22;;;;;;;5.65;1.80;;;21.20;99.90;23.70;102842.00;;;;5064654;28;20217;-73
2023/05/26 11:42:57;;;;;;;2.45;1.38;;;21.80;99.90;22.00;102888.00;;;;5044979;28;20198;-73
2023/05/26 11:45:25;;;;;;;12.63;7.15;;;20.70;99.90;23.60;102853.00;;;;5034516;28;20548;-73
2023/05/26 11:47:52;;;;;;;3.88;1.20;;;21.00;99.90;23.30;102870.00;;;;5034876;28;20183;-72
2023/05/26 11:50:18;;;;;;;2.83;2.47;;;21.10;99.90;24.20;102859.00;;;;5031273;28;20646;-72
2023/05/26 11:52:47;;;;;;;4.45;1.02;;;21.10;99.90;22.80;102873.00;;;;5051229;28;20364;-72
2023/05/26 11:55:15;;;;;;;1.15;0.90;;;20.90;99.90;22.30;102869.00;;;;5050955;28;20215;-72
2023/05/26 11:57:45;;;;;;;0.88;0.88;;;20.50;99.90;23.80;102854.00;;;;5034268;28;20217;-72
2023/05/26 12:00:19;;;;;;;4.07;1.50;;;20.50;99.90;21.80;102876.00;;;;5018157;28;20665;-72
2023/05/26 12:02:46;;;;;;;10.18;2.17;;;20.10;99.90;21.40;102869.00;;;;5037223;28;20683;-72
2023/05/26 12:05:29;;;;;;;7.85;0.82;;;19.60;99.90;21.90;102820.00;;;;5034303;28;20197;-72
2023/05/26 12:08:07;;;;;;;1.20;0.98;;;19.40;99.90;21.80;102863.00;;;;5044545;28;20178;-72
2023/05/26 12:10:43;;;;;;;1.58;0.40;;;19.60;99.90;21.70;102873.00;;;;5039597;28;20214;-73
2023/05/26 12:13:09;;;;;;;0.10;0.10;;;19.50;99.90;22.60;102853.00;;;;5033811;28;20251;-72
2023/05/26 12:15:38;;;;;;;1.88;1.35;;;19.70;99.90;22.50;102856.00;;;;5034493;28;20266;-72
2023/05/26 12:18:04;;;;;;;1.42;1.42;;;20.10;99.90;24.30;102856.00;;;;5025200;28;20197;-73
2023/05/26 12:20:34;;;;;;;1.33;1.23;;;20.60;99.90;21.90;102853.00;;;;5033898;28;20210;-73
2023/05/26 12:23:06;;;;;;;4.47;1.65;;;20.20;99.90;23.20;102870.00;;;;5034165;28;20194;-72
2023/05/26 12:25:33;;;;;;;5.15;1.05;;;20.20;99.90;22.60;102860.00;;;;5050364;28;20190;-73
2023/05/26 12:27:59;;;;;;;5.38;0.95;;;20.20;99.90;22.50;102857.00;;;;5017488;28;20219;-72
2023/05/26 12:30:27;;;;;;;1.08;0.98;;;20.10;99.90;23.20;102858.00;;;;5033786;28;20191;-73
2023/05/26 12:32:54;;;;;;;0.10;0.10;;;20.40;99.90;24.00;102840.00;;;;5033452;28;20673;-72
2023/05/26 12:35:20;;;;;;;1.65;1.17;;;20.50;99.90;22.40;102856.00;;;;5033620;28;20924;-72
2023/05/26 12:37:47;;;;;;;0.80;0.77;;;20.50;99.90;22.10;102841.00;;;;5033634;28;20199;-72
2023/05/26 12:40:14;;;;;;;0.52;0.43;;;20.00;99.90;22.80;102834.00;;;;5033555;28;20277;-73
2023/05/26 12:42:40;;;;;;;3.47;0.80;;;20.10;99.90;22.40;102837.00;;;;5046982;28;20180;-73
2023/05/26 12:45:07;;;;;;;9.38;1.88;;;20.10;99.90;22.00;102837.00;;;;5030459;28;20245;-73
2023/05/26 12:47:34;;;;;;;0.43;0.43;;;20.10;99.90;22.30;102816.00;;;;5016936;28;20186;-73
2023/05/26 12:50:02;;;;;;;1.48;1.23;;;19.90;99.90;22.00;102848.00;;;;5033429;28;20179;-72
2023/05/26 12:52:29;;;;;;;3.42;0.75;;;19.70;99.90;22.40;102842.00;;;;5017095;28;20297;-72
2023/05/26 12:54:55;;;;;;;2.25;1.40;;;19.70;99.90;22.00;102843.00;;;;5016138;28;20190;-72
2023/05/26 12:57:21;;;;;;;0.52;0.52;;;20.00;99.90;22.90;102834.00;;;;5034372;28;20228;-72
2023/05/26 12:59:47;;;;;;;3.15;1.50;;;20.20;99.90;22.10;102843.00;;;;5016779;28;20225;-72
2023/05/26 13:02:19;;;;;;;0.88;0.63;;;20.10;99.90;22.70;102840.00;;;;5033185;28;20779;-72
2023/05/26 13:04:45;;;;;;;0.30;0.30;;;20.30;99.90;23.30;102833.00;;;;5033318;28;20183;-73
2023/05/26 13:07:13;;;;;;;5.32;1.23;;;20.40;99.90;22.40;102835.00;;;;5034367;28;20191;-72
2023/05/26 13:09:46;;;;;;;10.60;2.70;;;20.40;99.90;22.90;102820.00;;;;5033087;28;20182;-73
2023/05/26 13:12:12;;;;;;;1.17;0.70;;;20.40;99.90;22.80;102831.00;;;;5016714;28;20289;-72
2023/05/26 13:14:38;;;;;;;0.55;0.47;;;20.50;99.90;22.90;102830.00;;;;5049557;28;20254;-72
2023/05/26 13:17:07;;;;;;;7.13;1.00;;;20.40;99.90;23.50;102809.00;;;;5033126;28;20183;-73
2023/05/26 13:19:33;;;;;;;0.70;0.70;;;20.70;99.90;23.30;102823.00;;;;5033137;28;20190;-72
2023/05/26 13:22:02;;;;;;;0.47;0.47;;;20.40;99.90;23.10;102824.00;;;;5032620;28;20183;-72
2023/05/26 13:24:31;;;;;;;1.15;0.57;;;20.40;99.90;22.40;102821.00;;;;5049540;28;20249;-72
2023/05/26 13:26:57;;;;;;;1.40;0.98;;;20.10;99.90;22.50;102819.00;;;;5032361;28;20194;-72
2023/05/26 13:29:23;;;;;;;0.88;0.88;;;20.10;99.90;23.00;102828.00;;;;5049731;28;20183;-72
2023/05/26 13:31:48;;;;;;;0.32;0.32;;;20.30;99.90;22.90;102782.00;;;;5033501;28;20245;-73
2023/05/26 13:34:17;;;;;;;12.85;2.65;;;20.20;99.90;22.50;102831.00;;;;5042577;28;20273;-72
2023/05/26 13:36:45;;;;;;;2.65;1.42;;;20.30;99.90;23.00;102791.00;;;;5021503;28;20274;-72
2023/05/26 13:39:11;;;;;;;1.77;0.70;;;20.40;99.90;22.00;102837.00;;;;5016272;28;20641;-72
2023/05/26 13:41:37;;;;;;;1.67;1.17;;;20.20;99.90;22.00;102826.00;;;;5032285;28;20183;-72
2023/05/26 13:44:03;;;;;;;2.83;1.48;;;20.00;99.90;22.60;102822.00;;;;5033573;28;21463;-73
2023/05/26 13:46:34;;;;;;;2.15;1.55;;;20.20;99.90;21.80;102848.00;;;;5032594;28;20201;-72
2023/05/26 13:49:00;;;;;;;1.85;1.33;;;19.90;99.90;22.10;102817.00;;;;5015836;28;20210;-72
2023/05/26 13:51:28;;;;;;;0.20;0.20;;;19.70;99.90;22.40;102818.00;;;;5032511;28;20249;-72
2023/05/26 13:53:58;;;;;;;0.80;0.80;;;19.90;99.90;22.30;102795.00;;;;5046421;28;20190;-72
2023/05/26 13:56:24;;;;;;;2.85;0.95;;;20.00;99.90;21.90;102787.00;;;;5033517;28;20542;-72
2023/05/26 13:58:50;;;;;;;0.43;0.43;;;19.90;99.90;22.70;102814.00;;;;5048488;28;20194;-73
2023/05/26 14:01:16;;;;;;;1.15;0.77;;;19.90;99.90;23.00;102819.00;;;;5048850;28;20191;-72
2023/05/26 14:03:46;;;;;;;2.58;0.52;;;20.20;99.90;23.50;102804.00;;;;5032130;28;20236;-72
2023/05/26 14:06:12;;;;;;;1.05;0.73;;;20.50;99.90;22.10;102825.00;;;;5031828;28;20652;-72
2023/05/26 14:08:38;;;;;;;1.45;1.35;;;20.30;99.90;22.50;102806.00;;;;5029712;28;20240;-72
2023/05/26 14:11:04;;;;;;;1.65;1.10;;;20.20;99.90;23.50;102795.00;;;;5031974;28;20183;-72
2023/05/26 14:13:30;;;;;;;3.60;2.88;;;20.40;99.90;22.80;102806.00;;;;5032919;28;20187;-72
2023/05/26 14:15:56;;;;;;;2.15;1.30;;;20.40;99.90;22.90;102805.00;;;;5046576;28;20182;-73
2023/05/26 14:18:21;;;;;;;2.08;0.93;;;20.50;99.90;22.90;102752.00;;;;5028428;28;20179;-72
2023/05/26 14:20:48;;;;;;;2.42;1.65;;;20.40;99.90;22.90;102800.00;;;;5015439;28;20179;-72
2023/05/26 14:23:17;;;;;;;5.68;1.15;;;20.40;99.90;22.40;102794.00;;;;5027196;28;20645;-72
2023/05/26 14:25:43;;;;;;;1.10;0.95;;;20.10;99.90;22.10;102787.00;;;;5031782;28;20183;-72
2023/05/26 14:28:14;;;;;;;2.20;0.85;;;19.90;99.90;22.10;102784.00;;;;5048175;28;20205;-72
2023/05/26 14:30:42;;;;;;;1.15;0.65;;;20.00;99.90;22.60;102754.00;;;;5015623;28;20201;-73
2023/05/26 14:33:08;;;;;;;0.40;0.40;;;20.00;99.90;22.70;102789.00;;;;5048096;28;20305;-72
2023/05/26 14:35:34;;;;;;;0.35;0.35;;;20.20;99.90;23.60;102786.00;;;;5032122;28;20266;-72
2023/05/26 14:38:04;;;;;;;2.13;1.90;;;20.40;99.90;22.80;102785.00;;;;5047894;28;20202;-73
2023/05/26 14:40:32;;;;;;;0.17;0.17;;;20.40;99.90;23.10;102786.00;;;;5034873;28;20180;-72
2023/05/26 14:42:58;;;;;;;25.52;2.83;;;20.40;99.90;23.80;102766.00;;;;5028706;28;20637;-73
2023/05/26 14:45:27;;;;;;;2.58;0.85;;;20.40;99.90;23.20;102776.00;;;;5031613;28;20233;-72
2023/05/26 14:47:53;;;;;;;6.85;0.90;;;20.70;99.90;22.50;102797.00;;;;5033381;28;20277;-72
2023/05/26 14:50:19;;;;;;;0.52;0.52;;;20.40;99.90;23.30;102782.00;;;;5031754;28;20185;-72
2023/05/26 14:52:45;;;;;;;1.65;0.25;;;20.40;99.90;23.10;102778.00;;;;5032678;28;20233;-72
2023/05/26 14:55:10;;;;;;;2.00;0.30;;;20.20;99.90;22.70;102776.00;;;;5032597;28;20214;-72
2023/05/26 14:57:42;;;;;;;1.33;1.23;;;20.10;99.90;21.80;102783.00;;;;5031790;28;20206;-72
2023/05/26 15:00:08;;;;;;;11.25;2.95;;;19.90;99.90;22.30;102762.00;;;;5031013;28;20659;-72
2023/05/26 15:02:34;;;;;;;0.75;0.68;;;19.90;99.90;22.10;102776.00;;;;5031431;28;20223;-72
2023/05/26 15:05:00;;;;;;;0.10;0.10;;;20.10;99.90;22.70;102776.00;;;;5048052;28;20305;-72
2023/05/26 15:07:26;;;;;;;0.20;0.20;;;20.10;99.90;23.60;102761.00;;;;5031020;28;20604;-72
2023/05/26 15:09:52;;;;;;;0.52;0.52;;;20.30;99.90;23.10;102764.00;;;;5047870;28;20190;-72
2023/05/26 15:12:21;;;;;;;0.10;0.10;;;20.60;99.90;24.00;102753.00;;;;5031188;28;20693;-73
2023/05/26 15:14:52;;;;;;;3.80;1.48;;;20.60;99.90;22.10;102784.00;;;;5032174;28;20541;-72
2023/05/26 15:17:20;;;;;;;0.90;0.90;;;20.50;99.90;22.70;102777.00;;;;5043126;28;20575;-72
2023/05/26 15:20:09;;;;;;;1.23;0.93;;;20.40;99.90;23.20;102769.00;;;;5034351;28;20186;-72
2023/05/26 15:22:39;;;;;;;0.13;0.13;;;20.50;99.90;23.50;102754.00;;;;5039243;28;20237;-72
2023/05/26 15:25:09;;;;;;;0.40;0.28;;;20.60;99.90;23.00;102765.00;;;;5046615;28;20706;-72
2023/05/26 15:27:35;;;;;;;2.47;1.15;;;20.60;99.90;22.70;102780.00;;;;5035026;28;20190;-72
2023/05/26 15:30:06;;;;;;;1.38;0.90;;;20.60;99.90;22.80;102732.00;;;;5052053;28;20171;-72
2023/05/26 15:32:35;;;;;;;8.20;2.22;;;20.60;99.90;22.80;102772.00;;;;5034982;28;20221;-72
2023/05/26 15:35:01;;;;;;;2.33;0.90;;;20.50;99.90;23.00;102753.00;;;;5034408;28;20260;-72
2023/05/26 15:37:29;;;;;;;1.52;1.05;;;20.50;99.90;22.90;102745.00;;;;5034596;28;20210;-72
2023/05/26 15:39:56;;;;;;;2.75;1.05;;;20.50;99.90;22.40;102759.00;;;;5034549;28;20245;-72
2023/05/26 15:42:21;;;;;;;0.63;0.63;;;20.30;99.90;22.70;102750.00;;;;5035059;28;20713;-72
2023/05/26 15:44:48;;;;;;;6.97;2.20;;;20.30;99.90;21.70;102767.00;;;;5035395;28;20194;-72
2023/05/26 15:47:17;;;;;;;2.95;0.50;;;20.20;99.90;22.20;102764.00;;;;5051636;28;20220;-72
2023/05/26 15:49:57;;;;;;;9.40;1.30;;;20.00;99.90;21.50;102717.00;;;;5050741;28;20189;-72
2023/05/26 15:52:23;;;;;;;1.92;0.90;;;19.90;99.90;22.20;102748.00;;;;5018231;28;20206;-72
2023/05/26 15:54:51;;;;;;;2.25;1.35;;;19.90;99.90;21.90;102746.00;;;;5051273;28;20206;-72
2023/05/26 15:57:17;;;;;;;1.73;1.38;;;20.00;99.90;22.30;102748.00;;;;5034489;28;20186;-72
2023/05/26 15:59:43;;;;;;;1.48;1.02;;;20.00;99.90;22.30;102750.00;;;;5043744;28;20655;-72
2023/05/26 16:02:12;;;;;;;1.42;1.27;;;20.10;99.90;22.50;102750.00;;;;5034592;28;20261;-72
2023/05/26 16:04:38;;;;;;;4.82;1.73;;;20.20;99.90;22.30;102741.00;;;;5050199;28;20183;-72
2023/05/26 16:07:09;;;;;;;0.30;0.30;;;20.20;99.90;22.50;102749.00;;;;5034139;28;20607;-72
2023/05/26 16:09:39;;;;;;;1.20;0.77;;;20.00;99.90;22.60;102749.00;;;;5033040;28;20261;-72
2023/05/26 16:12:13;;;;;;;0.65;0.65;;;20.30;99.90;22.70;102743.00;;;;5033966;28;20218;-72
2023/05/26 16:14:39;;;;;;;0.50;0.50;;;20.30;99.90;22.60;102750.00;;;;5018165;28;20612;-72
2023/05/26 16:17:04;;;;;;;0.55;0.30;;;20.10;99.90;22.50;102738.00;;;;5035264;28;20270;-72
2023/05/26 16:19:30;;;;;;;3.13;1.30;;;20.00;99.90;22.90;102741.00;;;;5035324;28;20245;-72
2023/05/26 16:21:57;;;;;;;0.20;0.20;;;20.10;99.90;22.70;102730.00;;;;5035678;28;20194;-72
2023/05/26 16:24:28;;;;;;;4.93;1.02;;;20.10;99.90;22.50;102749.00;;;;5034136;28;20617;-72
2023/05/26 16:26:56;;;;;;;0.20;0.20;;;20.00;99.90;23.90;102730.00;;;;5035044;28;20182;-72
2023/05/26 16:29:23;;;;;;;0.28;0.28;;;20.30;99.90;23.50;102729.00;;;;5033781;28;20191;-72
2023/05/26 16:31:49;;;;;;;0.60;0.32;;;20.60;99.90;24.30;102739.00;;;;5050131;28;20237;-72
2023/05/26 16:34:16;;;;;;;3.00;1.05;;;20.80;99.90;22.40;102751.00;;;;5017136;28;20187;-72
2023/05/26 16:36:44;;;;;;;6.22;1.95;;;20.60;99.90;22.20;102720.00;;;;5033783;28;20211;-72
2023/05/26 16:39:15;;;;;;;1.38;0.57;;;20.10;99.90;22.50;102746.00;;;;5033716;28;20667;-72
2023/05/26 16:41:44;;;;;;;0.38;0.30;;;20.00;99.90;22.90;102733.00;;;;5049689;28;20274;-72
2023/05/26 16:44:10;;;;;;;3.30;1.30;;;20.20;99.90;22.40;102742.00;;;;5030236;28;20206;-72
2023/05/26 16:46:38;;;;;;;0.93;0.57;;;20.30;99.90;22.00;102747.00;;;;5033610;28;20232;-72
2023/05/26 16:49:09;;;;;;;0.28;0.15;;;20.10;99.90;22.60;102728.00;;;;5049645;28;20262;-72
2023/05/26 16:51:36;;;;;;;3.03;0.98;;;20.10;99.90;21.90;102738.00;;;;5033419;28;20202;-72
2023/05/26 16:54:02;;;;;;;1.48;1.05;;;19.90;99.90;23.10;102724.00;;;;5020521;28;20179;-72
2023/05/26 16:56:30;;;;;;;0.30;0.30;;;20.10;99.90;23.80;102725.00;;;;5034174;28;20653;-72
2023/05/26 16:58:55;;;;;;;2.28;0.30;;;20.30;99.90;23.00;102737.00;;;;5034409;28;20186;-72
2023/05/26 17:01:21;;;;;;;1.75;0.73;;;20.10;99.90;22.50;102729.00;;;;5016643;28;20199;-72
2023/05/26 17:03:50;;;;;;;1.80;1.67;;;20.20;99.90;23.10;102718.00;;;;5049463;28;20190;-72
2023/05/26 17:06:16;;;;;;;0.38;0.38;;;20.20;99.90;23.30;102736.00;;;;5033044;28;20645;-72
2023/05/26 17:08:43;;;;;;;0.38;0.28;;;20.40;99.90;23.20;102722.00;;;;5032908;28;20266;-72
2023/05/26 17:11:09;;;;;;;1.30;1.25;;;20.40;99.90;23.00;102727.00;;;;5034127;28;20195;-72
2023/05/26 17:13:35;;;;;;;2.75;1.98;;;20.20;99.90;22.20;102727.00;;;;5049487;28;20179;-72
2023/05/26 17:16:07;;;;;;;1.75;0.75;;;19.90;99.90;22.40;102736.00;;;;5049432;28;20193;-72
2023/05/26 17:18:33;;;;;;;3.28;0.40;;;19.80;99.90;22.60;102736.00;;;;5033113;28;20187;-72
2023/05/26 17:20:59;;;;;;;1.15;0.60;;;20.00;99.90;21.70;102746.00;;;;5032735;28;20189;-71
2023/05/26 17:23:25;;;;;;;1.67;0.57;;;19.90;99.90;22.30;102691.00;;;;5049074;28;20201;-72
2023/05/26 17:25:51;;;;;;;1.02;0.65;;;19.80;99.90;22.50;102732.00;;;;5016535;28;20191;-72
2023/05/26 17:28:20;;;;;;;0.82;0.55;;;19.90;99.90;22.80;102693.00;;;;5032564;28;20756;-71
2023/05/26 17:30:46;;;;;;;0.38;0.38;;;19.90;99.90;22.00;102706.00;;;;5033649;28;20178;-71
2023/05/26 17:33:12;;;;;;;0.15;0.15;;;19.70;99.90;22.80;102730.00;;;;5032442;28;20635;-72
2023/05/26 17:35:38;;;;;;;3.65;1.65;;;19.80;99.90;22.00;102739.00;;;;5049381;28;20195;-71
2023/05/26 17:38:04;;;;;;;6.50;1.52;;;19.70;99.90;21.70;102734.00;;;;5048862;28;20195;-72
2023/05/26 17:40:30;;;;;;;4.13;1.65;;;19.60;99.90;21.60;102736.00;;;;5032651;28;20182;-71
2023/05/26 17:42:55;;;;;;;0.80;0.77;;;19.50;99.90;22.10;102727.00;;;;5032148;28;20270;-71
2023/05/26 17:45:21;;;;;;;0.50;0.30;;;19.60;99.90;22.10;102743.00;;;;5048528;28;20186;-72
2023/05/26 17:47:47;;;;;;;1.13;0.68;;;19.50;99.90;21.90;102736.00;;;;5032596;28;20186;-71
2023/05/26 17:50:23;;;;;;;10.48;0.93;;;19.50;99.90;21.90;102753.00;;;;5049168;28;20591;-72
2023/05/26 17:52:48;;;;;;;1.85;1.73;;;19.50;99.90;21.70;102738.00;;;;5032464;28;20276;-71
2023/05/26 17:55:14;;;;;;;0.77;0.77;;;19.40;99.90;22.50;102730.00;;;;5032601;28;20218;-71
2023/05/26 17:57:43;;;;;;;0.43;0.43;;;19.50;99.90;21.80;102736.00;;;;5032788;28;20721;-71
2023/05/26 18:00:13;;;;;;;0.25;0.25;;;19.40;99.90;22.30;102735.00;;;;5048860;28;20187;-71
2023/05/26 18:02:39;;;;;;;0.55;0.55;;;19.50;99.90;22.20;102743.00;;;;5032061;28;20198;-71
2023/05/26 18:05:09;;;;;;;5.45;1.42;;;19.40;99.90;21.70;102755.00;;;;5048864;28;20198;-72